sensor_id;sensor_type;location;lat;lon;timestamp;pressure;altitude;pressure_sealevel;temperature;humidity
52653;BME280;39353;42.864;12.014;2023-03-14T00:02:05;97239.03;;;21.89;53.32
52653;BME280;39353;42.864;12.014;2023-03-14T00:04:35;97235.44;;;21.87;53.30
52653;BME280;39353;42.864;12.014;2023-03-14T00:07:03;97227.09;;;21.85;53.08
52653;BME280;39353;42.864;12.014;2023-03-14T00:09:32;97220.59;;;21.82;53.15
52653;BME280;39353;42.864;12.014;2023-03-14T00:12:13;97217.27;;;21.80;53.03
52653;BME280;39353;42.864;12.014;2023-03-14T00:14:54;97209.27;;;21.79;53.25
52653;BME280;39353;42.864;12.014;2023-03-14T00:17:37;97205.73;;;21.77;53.18
52653;BME280;39353;42.864;12.014;2023-03-14T00:20:06;97206.20;;;21.76;53.21
52653;BME280;39353;42.864;12.014;2023-03-14T00:22:39;97201.42;;;21.76;53.25
52653;BME280;39353;42.864;12.014;2023-03-14T00:25:21;97198.63;;;21.75;53.45
52653;BME280;39353;42.864;12.014;2023-03-14T00:28:03;97191.88;;;21.73;53.35
52653;BME280;39353;42.864;12.014;2023-03-14T00:30:31;97192.62;;;21.72;53.26
52653;BME280;39353;42.864;12.014;2023-03-14T00:33:12;97191.52;;;21.71;53.32
52653;BME280;39353;42.864;12.014;2023-03-14T00:36:00;97191.45;;;21.69;53.46
52653;BME280;39353;42.864;12.014;2023-03-14T00:38:45;97195.34;;;21.69;53.41
52653;BME280;39353;42.864;12.014;2023-03-14T00:41:23;97202.67;;;21.67;53.45
52653;BME280;39353;42.864;12.014;2023-03-14T00:44:04;97191.02;;;21.66;53.36
52653;BME280;39353;42.864;12.014;2023-03-14T00:46:32;97185.86;;;21.65;53.47
52653;BME280;39353;42.864;12.014;2023-03-14T00:49:01;97181.90;;;21.64;53.48
52653;BME280;39353;42.864;12.014;2023-03-14T00:51:43;97176.37;;;21.63;53.64
52653;BME280;39353;42.864;12.014;2023-03-14T00:54:27;97162.98;;;21.61;53.64
52653;BME280;39353;42.864;12.014;2023-03-14T00:57:08;97148.21;;;21.60;53.59
52653;BME280;39353;42.864;12.014;2023-03-14T00:59:50;97145.70;;;21.60;53.66
52653;BME280;39353;42.864;12.014;2023-03-14T01:02:31;97148.45;;;21.58;53.68
52653;BME280;39353;42.864;12.014;2023-03-14T01:05:12;97159.09;;;21.58;53.55
52653;BME280;39353;42.864;12.014;2023-03-14T01:07:40;97152.45;;;21.56;53.68
52653;BME280;39353;42.864;12.014;2023-03-14T01:10:22;97144.85;;;21.56;53.72
52653;BME280;39353;42.864;12.014;2023-03-14T01:13:03;97131.80;;;21.53;53.64
52653;BME280;39353;42.864;12.014;2023-03-14T01:15:44;97126.10;;;21.52;53.52
52653;BME280;39353;42.864;12.014;2023-03-14T01:18:25;97118.92;;;21.52;53.72
52653;BME280;39353;42.864;12.014;2023-03-14T01:21:28;97096.41;;;21.50;53.70
52653;BME280;39353;42.864;12.014;2023-03-14T01:23:59;97095.46;;;21.49;53.67
52653;BME280;39353;42.864;12.014;2023-03-14T01:26:31;97097.67;;;21.48;53.47
52653;BME280;39353;42.864;12.014;2023-03-14T01:29:13;97109.39;;;21.48;53.58
52653;BME280;39353;42.864;12.014;2023-03-14T01:31:54;97107.52;;;21.47;53.51
52653;BME280;39353;42.864;12.014;2023-03-14T01:34:22;97106.84;;;21.47;53.58
52653;BME280;39353;42.864;12.014;2023-03-14T01:36:51;97111.65;;;21.46;53.67
52653;BME280;39353;42.864;12.014;2023-03-14T01:39:19;97107.48;;;21.45;53.56
52653;BME280;39353;42.864;12.014;2023-03-14T01:42:01;97087.86;;;21.43;53.54
52653;BME280;39353;42.864;12.014;2023-03-14T01:47:29;97076.38;;;21.42;53.75
52653;BME280;39353;42.864;12.014;2023-03-14T01:50:12;97078.35;;;21.41;53.69
52653;BME280;39353;42.864;12.014;2023-03-14T01:52:48;97074.36;;;21.41;53.71
52653;BME280;39353;42.864;12.014;2023-03-14T01:55:24;97067.46;;;21.40;53.68
52653;BME280;39353;42.864;12.014;2023-03-14T01:58:08;97064.12;;;21.39;53.81
52653;BME280;39353;42.864;12.014;2023-03-14T02:00:50;97069.85;;;21.38;53.55
52653;BME280;39353;42.864;12.014;2023-03-14T02:03:22;97069.56;;;21.38;53.67
52653;BME280;39353;42.864;12.014;2023-03-14T02:05:56;97058.18;;;21.38;53.71
52653;BME280;39353;42.864;12.014;2023-03-14T02:08:27;97041.89;;;21.36;53.75
52653;BME280;39353;42.864;12.014;2023-03-14T02:10:58;97021.20;;;21.36;53.58
52653;BME280;39353;42.864;12.014;2023-03-14T02:13:38;97002.88;;;21.34;53.66
52653;BME280;39353;42.864;12.014;2023-03-14T02:16:30;96991.47;;;21.34;53.66
52653;BME280;39353;42.864;12.014;2023-03-14T02:19:21;96982.83;;;21.33;53.71
52653;BME280;39353;42.864;12.014;2023-03-14T02:22:16;96977.96;;;21.32;53.58
52653;BME280;39353;42.864;12.014;2023-03-14T02:27:48;96973.23;;;21.31;53.56
52653;BME280;39353;42.864;12.014;2023-03-14T02:30:31;96967.23;;;21.30;53.42
52653;BME280;39353;42.864;12.014;2023-03-14T02:33:18;96971.09;;;21.29;53.43
52653;BME280;39353;42.864;12.014;2023-03-14T02:36:05;96963.45;;;21.29;53.52
52653;BME280;39353;42.864;12.014;2023-03-14T02:41:44;96952.98;;;21.27;53.48
52653;BME280;39353;42.864;12.014;2023-03-14T02:44:14;96949.27;;;21.26;53.33
52653;BME280;39353;42.864;12.014;2023-03-14T02:46:57;96949.73;;;21.26;53.01
52653;BME280;39353;42.864;12.014;2023-03-14T02:49:27;96949.23;;;21.24;53.41
52653;BME280;39353;42.864;12.014;2023-03-14T02:51:58;96955.15;;;21.24;53.39
52653;BME280;39353;42.864;12.014;2023-03-14T02:54:39;96947.61;;;21.23;53.38
52653;BME280;39353;42.864;12.014;2023-03-14T02:57:06;96941.27;;;21.23;53.43
52653;BME280;39353;42.864;12.014;2023-03-14T02:59:53;96932.85;;;21.22;53.61
52653;BME280;39353;42.864;12.014;2023-03-14T03:02:21;96927.88;;;21.21;53.59
52653;BME280;39353;42.864;12.014;2023-03-14T03:05:03;96923.01;;;21.21;53.61
52653;BME280;39353;42.864;12.014;2023-03-14T03:07:33;96920.55;;;21.21;53.69
52653;BME280;39353;42.864;12.014;2023-03-14T03:10:00;96915.63;;;21.19;53.59
52653;BME280;39353;42.864;12.014;2023-03-14T03:12:42;96910.64;;;21.19;53.69
52653;BME280;39353;42.864;12.014;2023-03-14T03:15:29;96899.44;;;21.18;53.63
52653;BME280;39353;42.864;12.014;2023-03-14T03:17:57;96893.64;;;21.17;53.65
52653;BME280;39353;42.864;12.014;2023-03-14T03:20:38;96888.48;;;21.16;53.75
52653;BME280;39353;42.864;12.014;2023-03-14T03:23:19;96881.55;;;21.16;53.56
52653;BME280;39353;42.864;12.014;2023-03-14T03:26:00;96878.86;;;21.15;53.75
52653;BME280;39353;42.864;12.014;2023-03-14T03:28:43;96874.77;;;21.15;53.92
52653;BME280;39353;42.864;12.014;2023-03-14T03:31:12;96874.31;;;21.14;53.69
52653;BME280;39353;42.864;12.014;2023-03-14T03:33:40;96872.72;;;21.13;53.72
52653;BME280;39353;42.864;12.014;2023-03-14T03:36:24;96873.17;;;21.12;53.89
52653;BME280;39353;42.864;12.014;2023-03-14T03:38:52;96876.30;;;21.12;53.70
52653;BME280;39353;42.864;12.014;2023-03-14T03:41:33;96866.18;;;21.11;53.73
52653;BME280;39353;42.864;12.014;2023-03-14T03:44:15;96857.64;;;21.10;53.62
52653;BME280;39353;42.864;12.014;2023-03-14T03:46:42;96858.83;;;21.09;53.52
52653;BME280;39353;42.864;12.014;2023-03-14T03:49:10;96862.15;;;21.09;53.59
52653;BME280;39353;42.864;12.014;2023-03-14T03:51:37;96854.06;;;21.09;53.63
52653;BME280;39353;42.864;12.014;2023-03-14T03:54:05;96846.77;;;21.09;53.77
52653;BME280;39353;42.864;12.014;2023-03-14T03:56:47;96851.94;;;21.08;53.76
52653;BME280;39353;42.864;12.014;2023-03-14T03:59:14;96849.64;;;21.08;53.68
52653;BME280;39353;42.864;12.014;2023-03-14T04:01:56;96847.67;;;21.07;53.71
52653;BME280;39353;42.864;12.014;2023-03-14T04:04:24;96852.41;;;21.07;53.60
52653;BME280;39353;42.864;12.014;2023-03-14T04:06:52;96847.98;;;21.07;53.66
52653;BME280;39353;42.864;12.014;2023-03-14T04:09:33;96845.25;;;21.07;53.69
52653;BME280;39353;42.864;12.014;2023-03-14T04:12:10;96843.00;;;21.05;53.65
52653;BME280;39353;42.864;12.014;2023-03-14T04:14:39;96838.40;;;21.04;53.81
52653;BME280;39353;42.864;12.014;2023-03-14T04:17:29;96841.23;;;21.04;53.86
52653;BME280;39353;42.864;12.014;2023-03-14T04:19:56;96834.91;;;21.04;53.99
52653;BME280;39353;42.864;12.014;2023-03-14T04:22:45;96831.23;;;21.03;53.82
52653;BME280;39353;42.864;12.014;2023-03-14T04:25:14;96830.04;;;21.03;53.72
52653;BME280;39353;42.864;12.014;2023-03-14T04:27:47;96837.27;;;21.02;53.81
52653;BME280;39353;42.864;12.014;2023-03-14T04:30:38;96842.06;;;21.02;53.64
52653;BME280;39353;42.864;12.014;2023-03-14T04:33:26;96841.61;;;21.01;53.65
52653;BME280;39353;42.864;12.014;2023-03-14T04:36:10;96832.79;;;20.99;53.86
52653;BME280;39353;42.864;12.014;2023-03-14T04:38:37;96826.68;;;20.99;54.00
52653;BME280;39353;42.864;12.014;2023-03-14T04:41:19;96825.80;;;20.98;53.83
52653;BME280;39353;42.864;12.014;2023-03-14T04:44:00;96822.73;;;20.98;53.90
52653;BME280;39353;42.864;12.014;2023-03-14T04:46:41;96817.22;;;20.97;53.96
52653;BME280;39353;42.864;12.014;2023-03-14T04:49:22;96817.10;;;20.97;54.00
52653;BME280;39353;42.864;12.014;2023-03-14T04:51:51;96814.09;;;20.96;54.03
52653;BME280;39353;42.864;12.014;2023-03-14T04:54:19;96811.46;;;20.96;54.12
52653;BME280;39353;42.864;12.014;2023-03-14T04:57:04;96820.70;;;20.95;54.03
52653;BME280;39353;42.864;12.014;2023-03-14T04:59:47;96822.00;;;20.94;54.01
52653;BME280;39353;42.864;12.014;2023-03-14T05:02:16;96838.36;;;20.94;53.94
52653;BME280;39353;42.864;12.014;2023-03-14T05:04:47;96849.81;;;20.94;53.70
52653;BME280;39353;42.864;12.014;2023-03-14T05:07:17;96859.88;;;20.93;53.73
52653;BME280;39353;42.864;12.014;2023-03-14T05:10:03;96859.83;;;20.92;53.77
52653;BME280;39353;42.864;12.014;2023-03-14T05:12:49;96863.35;;;20.92;53.51
52653;BME280;39353;42.864;12.014;2023-03-14T05:15:23;96855.71;;;20.91;53.50
52653;BME280;39353;42.864;12.014;2023-03-14T05:18:19;96856.48;;;20.91;53.81
52653;BME280;39353;42.864;12.014;2023-03-14T05:20:51;96854.05;;;20.90;53.95
52653;BME280;39353;42.864;12.014;2023-03-14T05:23:33;96852.88;;;20.89;53.88
52653;BME280;39353;42.864;12.014;2023-03-14T05:26:37;96862.59;;;20.89;53.88
52653;BME280;39353;42.864;12.014;2023-03-14T05:29:05;96870.23;;;20.89;53.81
52653;BME280;39353;42.864;12.014;2023-03-14T05:31:47;96873.27;;;20.88;54.01
52653;BME280;39353;42.864;12.014;2023-03-14T05:34:32;96871.27;;;20.87;54.06
52653;BME280;39353;42.864;12.014;2023-03-14T05:37:20;96882.23;;;20.87;53.89
52653;BME280;39353;42.864;12.014;2023-03-14T05:40:20;96885.88;;;20.87;53.61
52653;BME280;39353;42.864;12.014;2023-03-14T05:43:14;96897.64;;;20.86;53.79
52653;BME280;39353;42.864;12.014;2023-03-14T05:46:06;96903.33;;;20.86;53.76
52653;BME280;39353;42.864;12.014;2023-03-14T05:48:52;96909.89;;;20.85;53.88
52653;BME280;39353;42.864;12.014;2023-03-14T05:51:21;96914.21;;;20.85;53.86
52653;BME280;39353;42.864;12.014;2023-03-14T05:54:22;96916.19;;;20.86;54.08
52653;BME280;39353;42.864;12.014;2023-03-14T05:57:19;96917.75;;;20.85;54.00
52653;BME280;39353;42.864;12.014;2023-03-14T06:00:03;96892.12;;;20.85;53.81
52653;BME280;39353;42.864;12.014;2023-03-14T06:02:57;96858.23;;;20.84;53.76
52653;BME280;39353;42.864;12.014;2023-03-14T06:05:27;96795.11;;;20.83;53.89
52653;BME280;39353;42.864;12.014;2023-03-14T06:08:12;96700.93;;;20.82;54.06
52653;BME280;39353;42.864;12.014;2023-03-14T06:10:39;96714.44;;;20.82;54.08
52653;BME280;39353;42.864;12.014;2023-03-14T06:13:08;96694.87;;;20.81;53.90
52653;BME280;39353;42.864;12.014;2023-03-14T06:15:49;96671.14;;;20.81;53.82
52653;BME280;39353;42.864;12.014;2023-03-14T06:18:18;96690.71;;;20.81;53.87
52653;BME280;39353;42.864;12.014;2023-03-14T06:20:47;96717.91;;;20.81;53.84
52653;BME280;39353;42.864;12.014;2023-03-14T06:23:35;96700.95;;;20.80;53.71
52653;BME280;39353;42.864;12.014;2023-03-14T06:26:03;96684.66;;;20.80;53.69
52653;BME280;39353;42.864;12.014;2023-03-14T06:28:30;96668.95;;;20.81;53.73
52653;BME280;39353;42.864;12.014;2023-03-14T06:31:14;96680.64;;;20.82;53.82
52653;BME280;39353;42.864;12.014;2023-03-14T06:34:03;96713.36;;;20.82;53.73
52653;BME280;39353;42.864;12.014;2023-03-14T06:36:31;96731.86;;;20.83;53.65
52653;BME280;39353;42.864;12.014;2023-03-14T06:38:59;96727.62;;;20.84;53.55
52653;BME280;39353;42.864;12.014;2023-03-14T06:41:42;96701.11;;;20.83;53.69
52653;BME280;39353;42.864;12.014;2023-03-14T06:44:09;96716.44;;;20.83;53.77
52653;BME280;39353;42.864;12.014;2023-03-14T06:46:38;96746.66;;;20.84;53.84
52653;BME280;39353;42.864;12.014;2023-03-14T06:49:19;96726.81;;;20.84;53.73
52653;BME280;39353;42.864;12.014;2023-03-14T06:52:01;96700.54;;;20.85;53.78
52653;BME280;39353;42.864;12.014;2023-03-14T06:54:43;96720.34;;;20.85;53.68
52653;BME280;39353;42.864;12.014;2023-03-14T06:57:24;96717.63;;;20.86;53.88
52653;BME280;39353;42.864;12.014;2023-03-14T06:59:52;96690.84;;;20.85;53.96
52653;BME280;39353;42.864;12.014;2023-03-14T07:02:34;96691.33;;;20.85;53.97
52653;BME280;39353;42.864;12.014;2023-03-14T07:05:16;96691.58;;;20.86;54.07
52653;BME280;39353;42.864;12.014;2023-03-14T07:07:57;96676.04;;;20.87;53.96
52653;BME280;39353;42.864;12.014;2023-03-14T07:10:25;96665.79;;;20.87;53.94
52653;BME280;39353;42.864;12.014;2023-03-14T07:13:06;96661.29;;;20.88;54.03
52653;BME280;39353;42.864;12.014;2023-03-14T07:15:38;96665.21;;;20.88;54.07
52653;BME280;39353;42.864;12.014;2023-03-14T07:18:09;96662.86;;;20.88;54.00
52653;BME280;39353;42.864;12.014;2023-03-14T07:20:50;96656.25;;;20.90;53.66
52653;BME280;39353;42.864;12.014;2023-03-14T07:23:17;96656.77;;;20.91;53.65
52653;BME280;39353;42.864;12.014;2023-03-14T07:26:02;96663.52;;;20.94;53.78
52653;BME280;39353;42.864;12.014;2023-03-14T07:28:44;96666.00;;;20.96;53.65
52653;BME280;39353;42.864;12.014;2023-03-14T07:31:15;96677.05;;;20.99;53.67
52653;BME280;39353;42.864;12.014;2023-03-14T07:33:42;96690.67;;;21.00;53.74
52653;BME280;39353;42.864;12.014;2023-03-14T07:36:25;96681.36;;;21.02;53.78
52653;BME280;39353;42.864;12.014;2023-03-14T07:39:06;96686.33;;;21.01;53.48
52653;BME280;39353;42.864;12.014;2023-03-14T07:41:56;96676.90;;;21.02;53.39
52653;BME280;39353;42.864;12.014;2023-03-14T07:44:27;96664.74;;;21.03;53.53
52653;BME280;39353;42.864;12.014;2023-03-14T07:47:08;96647.69;;;21.03;53.35
52653;BME280;39353;42.864;12.014;2023-03-14T07:49:49;96625.17;;;21.04;53.33
52653;BME280;39353;42.864;12.014;2023-03-14T07:52:17;96629.37;;;21.04;53.17
52653;BME280;39353;42.864;12.014;2023-03-14T07:55:02;96631.13;;;21.05;53.25
52653;BME280;39353;42.864;12.014;2023-03-14T07:57:43;96617.02;;;21.07;53.34
52653;BME280;39353;42.864;12.014;2023-03-14T08:00:12;96616.40;;;21.08;53.43
52653;BME280;39353;42.864;12.014;2023-03-14T08:02:41;96614.34;;;21.10;53.75
52653;BME280;39353;42.864;12.014;2023-03-14T08:05:08;96612.95;;;21.12;53.48
52653;BME280;39353;42.864;12.014;2023-03-14T08:07:50;96626.59;;;21.15;53.68
52653;BME280;39353;42.864;12.014;2023-03-14T08:10:32;96634.39;;;21.19;53.31
52653;BME280;39353;42.864;12.014;2023-03-14T08:13:01;96643.15;;;21.21;53.43
52653;BME280;39353;42.864;12.014;2023-03-14T08:15:47;96646.92;;;21.08;47.85
52653;BME280;39353;42.864;12.014;2023-03-14T08:18:18;96653.33;;;21.02;48.92
52653;BME280;39353;42.864;12.014;2023-03-14T08:20:59;96654.85;;;20.98;49.19
52653;BME280;39353;42.864;12.014;2023-03-14T08:23:26;96652.73;;;20.98;49.47
52653;BME280;39353;42.864;12.014;2023-03-14T08:25:53;96656.33;;;21.01;49.23
52653;BME280;39353;42.864;12.014;2023-03-14T08:28:38;96662.15;;;21.04;49.40
52653;BME280;39353;42.864;12.014;2023-03-14T08:31:19;96668.23;;;21.05;49.72
52653;BME280;39353;42.864;12.014;2023-03-14T08:33:46;96670.73;;;21.06;49.63
52653;BME280;39353;42.864;12.014;2023-03-14T08:36:27;96662.37;;;21.04;48.58
52653;BME280;39353;42.864;12.014;2023-03-14T08:38:54;96662.34;;;21.02;48.71
52653;BME280;39353;42.864;12.014;2023-03-14T08:41:35;96679.55;;;21.04;49.25
52653;BME280;39353;42.864;12.014;2023-03-14T08:44:23;96663.73;;;21.04;49.24
52653;BME280;39353;42.864;12.014;2023-03-14T08:47:04;96661.60;;;21.04;49.02
52653;BME280;39353;42.864;12.014;2023-03-14T08:49:45;96645.88;;;21.03;49.27
52653;BME280;39353;42.864;12.014;2023-03-14T08:52:13;96636.20;;;21.05;48.68
52653;BME280;39353;42.864;12.014;2023-03-14T08:54:56;96625.23;;;20.73;47.20
52653;BME280;39353;42.864;12.014;2023-03-14T08:57:38;96614.83;;;20.67;47.98
52653;BME280;39353;42.864;12.014;2023-03-14T09:00:07;96613.70;;;20.68;48.09
52653;BME280;39353;42.864;12.014;2023-03-14T09:02:37;96605.78;;;20.71;48.36
52653;BME280;39353;42.864;12.014;2023-03-14T09:05:06;96601.02;;;20.73;48.86
52653;BME280;39353;42.864;12.014;2023-03-14T09:07:47;96592.83;;;20.75;48.88
52653;BME280;39353;42.864;12.014;2023-03-14T09:10:14;96590.01;;;20.77;48.86
52653;BME280;39353;42.864;12.014;2023-03-14T09:12:41;96597.00;;;20.78;49.00
52653;BME280;39353;42.864;12.014;2023-03-14T09:15:24;96596.51;;;20.78;49.35
52653;BME280;39353;42.864;12.014;2023-03-14T09:18:05;96597.83;;;20.80;49.61
52653;BME280;39353;42.864;12.014;2023-03-14T09:20:32;96608.81;;;20.81;50.11
52653;BME280;39353;42.864;12.014;2023-03-14T09:45:48;96614.55;;;20.98;50.86
52653;BME280;39353;42.864;12.014;2023-03-14T09:48:33;96608.45;;;20.96;50.51
52653;BME280;39353;42.864;12.014;2023-03-14T09:51:07;96598.02;;;20.95;50.60
52653;BME280;39353;42.864;12.014;2023-03-14T09:53:52;96591.38;;;20.96;50.59
52653;BME280;39353;42.864;12.014;2023-03-14T09:56:34;96593.17;;;20.98;50.70
52653;BME280;39353;42.864;12.014;2023-03-14T09:59:08;96592.75;;;21.00;50.47
52653;BME280;39353;42.864;12.014;2023-03-14T10:02:00;96599.83;;;20.88;50.20
52653;BME280;39353;42.864;12.014;2023-03-14T10:04:45;96595.75;;;20.89;50.46
52653;BME280;39353;42.864;12.014;2023-03-14T10:07:31;96596.77;;;20.90;50.55
52653;BME280;39353;42.864;12.014;2023-03-14T10:10:24;96595.58;;;20.92;50.76
52653;BME280;39353;42.864;12.014;2023-03-14T10:13:18;96566.88;;;20.95;50.65
52653;BME280;39353;42.864;12.014;2023-03-14T10:16:02;96520.92;;;20.96;50.67
52653;BME280;39353;42.864;12.014;2023-03-14T10:18:32;96526.48;;;20.99;50.95
52653;BME280;39353;42.864;12.014;2023-03-14T10:21:21;96532.72;;;21.04;51.09
52653;BME280;39353;42.864;12.014;2023-03-14T10:23:53;96533.00;;;21.05;51.03
52653;BME280;39353;42.864;12.014;2023-03-14T10:26:29;96537.52;;;21.05;51.03
52653;BME280;39353;42.864;12.014;2023-03-14T10:29:14;96532.77;;;21.04;51.22
52653;BME280;39353;42.864;12.014;2023-03-14T10:34:27;96524.43;;;21.05;51.27
52653;BME280;39353;42.864;12.014;2023-03-14T10:37:23;96523.82;;;21.04;51.28
52653;BME280;39353;42.864;12.014;2023-03-14T10:40:13;96517.55;;;21.05;51.55
52653;BME280;39353;42.864;12.014;2023-03-14T10:42:55;96503.20;;;21.06;51.53
52653;BME280;39353;42.864;12.014;2023-03-14T10:48:23;96487.05;;;21.09;51.52
52653;BME280;39353;42.864;12.014;2023-03-14T10:51:05;96480.80;;;21.10;51.40
52653;BME280;39353;42.864;12.014;2023-03-14T10:53:45;96482.69;;;21.12;51.57
52653;BME280;39353;42.864;12.014;2023-03-14T10:56:34;96473.80;;;21.13;51.12
52653;BME280;39353;42.864;12.014;2023-03-14T10:59:17;96467.17;;;20.98;50.82
52653;BME280;39353;42.864;12.014;2023-03-14T11:05:19;96453.80;;;20.96;51.54
52653;BME280;39353;42.864;12.014;2023-03-14T11:07:53;96454.42;;;20.98;51.37
52653;BME280;39353;42.864;12.014;2023-03-14T11:10:33;96452.16;;;21.01;51.65
52653;BME280;39353;42.864;12.014;2023-03-14T11:13:25;96455.10;;;21.04;51.61
52653;BME280;39353;42.864;12.014;2023-03-14T11:16:26;96446.30;;;21.08;51.92
52653;BME280;39353;42.864;12.014;2023-03-14T11:21:35;96442.96;;;21.24;52.25
52653;BME280;39353;42.864;12.014;2023-03-14T11:27:07;96440.40;;;21.39;52.54
52653;BME280;39353;42.864;12.014;2023-03-14T11:32:50;96427.87;;;21.56;53.87
52653;BME280;39353;42.864;12.014;2023-03-14T11:40:57;96408.48;;;21.70;54.34
52653;BME280;39353;42.864;12.014;2023-03-14T11:43:30;96401.97;;;21.74;54.90
52653;BME280;39353;42.864;12.014;2023-03-14T11:51:59;96398.38;;;21.85;56.18
52653;BME280;39353;42.864;12.014;2023-03-14T11:54:45;96396.89;;;21.90;56.42
52653;BME280;39353;42.864;12.014;2023-03-14T11:57:30;96391.89;;;21.94;56.64
52653;BME280;39353;42.864;12.014;2023-03-14T12:00:21;96392.58;;;21.99;56.72
52653;BME280;39353;42.864;12.014;2023-03-14T12:03:27;96385.63;;;22.03;56.96
52653;BME280;39353;42.864;12.014;2023-03-14T12:09:17;96372.84;;;22.11;56.93
52653;BME280;39353;42.864;12.014;2023-03-14T12:12:04;96375.30;;;22.17;57.35
52653;BME280;39353;42.864;12.014;2023-03-14T12:14:59;96374.41;;;22.23;57.63
52653;BME280;39353;42.864;12.014;2023-03-14T12:17:42;96372.15;;;22.29;57.85
52653;BME280;39353;42.864;12.014;2023-03-14T12:20:27;96373.07;;;22.33;58.22
52653;BME280;39353;42.864;12.014;2023-03-14T12:23:11;96368.32;;;22.34;58.16
52653;BME280;39353;42.864;12.014;2023-03-14T12:26:21;96367.05;;;22.33;57.88
52653;BME280;39353;42.864;12.014;2023-03-14T12:31:38;96362.44;;;22.37;58.41
52653;BME280;39353;42.864;12.014;2023-03-14T12:36:59;96339.14;;;22.38;58.69
52653;BME280;39353;42.864;12.014;2023-03-14T12:39:50;96335.96;;;22.39;58.97
52653;BME280;39353;42.864;12.014;2023-03-14T12:42:40;96328.70;;;22.39;58.94
52653;BME280;39353;42.864;12.014;2023-03-14T12:47:50;96310.92;;;22.42;58.42
52653;BME280;39353;42.864;12.014;2023-03-14T12:50:45;96301.77;;;22.44;58.13
52653;BME280;39353;42.864;12.014;2023-03-14T13:01:59;96273.61;;;22.37;57.38
52653;BME280;39353;42.864;12.014;2023-03-14T13:04:35;96267.74;;;22.33;57.74
52653;BME280;39353;42.864;12.014;2023-03-14T13:07:04;96257.25;;;22.33;57.78
52653;BME280;39353;42.864;12.014;2023-03-14T13:09:53;96255.79;;;22.34;57.75
52653;BME280;39353;42.864;12.014;2023-03-14T13:15:27;96241.02;;;22.34;58.28
52653;BME280;39353;42.864;12.014;2023-03-14T13:18:02;96240.04;;;22.34;58.43
52653;BME280;39353;42.864;12.014;2023-03-14T13:20:39;96236.85;;;22.31;58.13
52653;BME280;39353;42.864;12.014;2023-03-14T13:23:27;96220.80;;;22.23;57.65
52653;BME280;39353;42.864;12.014;2023-03-14T13:26:14;96217.69;;;22.22;57.34
52653;BME280;39353;42.864;12.014;2023-03-14T13:28:42;96211.57;;;22.23;57.47
52653;BME280;39353;42.864;12.014;2023-03-14T13:31:21;96206.33;;;22.26;57.42
52653;BME280;39353;42.864;12.014;2023-03-14T13:34:09;96199.90;;;22.30;57.42
52653;BME280;39353;42.864;12.014;2023-03-14T13:36:54;96194.33;;;22.30;57.51
52653;BME280;39353;42.864;12.014;2023-03-14T13:39:24;96196.35;;;22.31;57.51
52653;BME280;39353;42.864;12.014;2023-03-14T13:42:15;96191.31;;;22.28;56.82
52653;BME280;39353;42.864;12.014;2023-03-14T13:44:59;96187.85;;;22.23;57.01
52653;BME280;39353;42.864;12.014;2023-03-14T13:47:27;96183.31;;;22.23;56.99
52653;BME280;39353;42.864;12.014;2023-03-14T13:50:20;96176.88;;;22.24;57.35
52653;BME280;39353;42.864;12.014;2023-03-14T13:53:02;96167.09;;;22.25;57.47
52653;BME280;39353;42.864;12.014;2023-03-14T13:55:43;96161.85;;;22.25;57.50
52653;BME280;39353;42.864;12.014;2023-03-14T13:58:22;96163.98;;;22.26;57.60
52653;BME280;39353;42.864;12.014;2023-03-14T14:00:57;96159.08;;;22.29;57.69
52653;BME280;39353;42.864;12.014;2023-03-14T14:03:27;96153.84;;;22.31;57.57
52653;BME280;39353;42.864;12.014;2023-03-14T14:05:56;96155.44;;;22.35;57.59
52653;BME280;39353;42.864;12.014;2023-03-14T14:08:26;96162.27;;;22.37;57.45
52653;BME280;39353;42.864;12.014;2023-03-14T14:11:03;96172.33;;;22.40;57.35
52653;BME280;39353;42.864;12.014;2023-03-14T14:13:34;96173.52;;;22.44;57.44
52653;BME280;39353;42.864;12.014;2023-03-14T14:16:04;96163.27;;;22.49;57.40
52653;BME280;39353;42.864;12.014;2023-03-14T14:18:33;96156.50;;;22.54;57.56
52653;BME280;39353;42.864;12.014;2023-03-14T14:21:15;96151.77;;;22.61;57.67
52653;BME280;39353;42.864;12.014;2023-03-14T14:23:56;96164.67;;;22.67;58.32
52653;BME280;39353;42.864;12.014;2023-03-14T14:27:01;96170.10;;;22.73;58.60
52653;BME280;39353;42.864;12.014;2023-03-14T14:29:41;96175.08;;;22.79;58.87
52653;BME280;39353;42.864;12.014;2023-03-14T14:37:32;96187.02;;;22.96;59.31
52653;BME280;39353;42.864;12.014;2023-03-14T14:40:21;96191.20;;;23.01;59.07
52653;BME280;39353;42.864;12.014;2023-03-14T14:43:04;96208.81;;;23.04;59.15
52653;BME280;39353;42.864;12.014;2023-03-14T14:45:34;96216.91;;;23.08;59.42
52653;BME280;39353;42.864;12.014;2023-03-14T14:48:08;96210.40;;;23.11;59.63
52653;BME280;39353;42.864;12.014;2023-03-14T14:50:57;96198.88;;;23.13;60.15
52653;BME280;39353;42.864;12.014;2023-03-14T14:53:42;96179.95;;;23.16;59.90
52653;BME280;39353;42.864;12.014;2023-03-14T14:56:28;96162.73;;;23.19;59.90
52653;BME280;39353;42.864;12.014;2023-03-14T14:58:58;96147.53;;;23.20;60.21
52653;BME280;39353;42.864;12.014;2023-03-14T15:01:42;96152.52;;;23.21;59.97
52653;BME280;39353;42.864;12.014;2023-03-14T15:04:23;96157.85;;;23.23;59.82
52653;BME280;39353;42.864;12.014;2023-03-14T15:07:04;96139.29;;;23.23;59.85
52653;BME280;39353;42.864;12.014;2023-03-14T15:12:51;96136.39;;;23.28;59.50
52653;BME280;39353;42.864;12.014;2023-03-14T15:18:18;96175.20;;;23.27;59.21
52653;BME280;39353;42.864;12.014;2023-03-14T15:20:45;96174.98;;;23.26;58.74
52653;BME280;39353;42.864;12.014;2023-03-14T15:23:26;96173.40;;;23.26;58.40
52653;BME280;39353;42.864;12.014;2023-03-14T15:26:18;96177.06;;;23.25;58.07